Time;durP1;ratioP1;P1;durP2;ratioP2;P2;SDS_P1;SDS_P2;PMS_P1;PMS_P2;Temp;Humidity;BMP_temperature;BMP_pressure;BME280_temperature;BME280_humidity;BME280_pressure;Samples;Min_cycle;Max_cycle;Signal;HPM_P1;HPM_P2
2023/07/19 00:00:15;;;;;;;9.23;7.20;;;28.40;96.10;;;;;;5103142;28;20451;-74
2023/07/19 00:02:41;;;;;;;8.57;6.73;;;28.40;96.20;;;;;;5087754;28;20426;-74
2023/07/19 00:05:09;;;;;;;9.03;6.97;;;28.40;96.50;;;;;;5088032;28;20590;-74
2023/07/19 00:07:34;;;;;;;9.93;6.97;;;28.40;97.10;;;;;;5087901;28;20284;-79
2023/07/19 00:10:00;;;;;;;7.30;6.60;;;28.30;96.60;;;;;;5103313;28;20497;-74
2023/07/19 00:12:26;;;;;;;8.90;6.27;;;28.20;96.60;;;;;;5103466;28;20208;-79
2023/07/19 00:14:51;;;;;;;8.30;6.60;;;28.10;96.80;;;;;;5087788;28;20560;-74
2023/07/19 00:17:17;;;;;;;7.80;6.70;;;28.00;96.90;;;;;;5102939;28;20276;-73
2023/07/19 00:19:43;;;;;;;8.73;6.80;;;27.90;97.00;;;;;;5087658;28;20173;-79
2023/07/19 00:22:08;;;;;;;6.83;6.17;;;27.90;97.20;;;;;;5087325;28;20291;-73
2023/07/19 00:24:34;;;;;;;8.13;7.33;;;27.80;97.30;;;;;;5086529;28;20192;-79
2023/07/19 00:27:00;;;;;;;7.37;6.67;;;27.80;97.50;;;;;;5103116;28;20250;-74
2023/07/19 00:29:26;;;;;;;10.20;7.37;;;27.70;97.60;;;;;;5087609;28;20215;-79
2023/07/19 00:31:52;;;;;;;8.43;6.93;;;27.70;97.70;;;;;;5087302;28;20287;-78
2023/07/19 00:34:17;;;;;;;7.13;6.47;;;27.70;97.70;;;;;;5103196;28;20173;-79
2023/07/19 00:36:43;;;;;;;8.73;7.17;;;27.70;97.70;;;;;;5087113;28;20248;-74
2023/07/19 00:39:09;;;;;;;10.63;7.30;;;27.70;97.90;;;;;;5102689;28;20217;-78
2023/07/19 00:41:35;;;;;;;12.03;6.50;;;27.70;98.20;;;;;;5087274;28;20688;-74
2023/07/19 00:44:00;;;;;;;10.83;6.67;;;27.60;98.10;;;;;;5087132;28;20169;-79
2023/07/19 00:46:27;;;;;;;10.57;6.23;;;27.50;98.20;;;;;;5087449;28;20183;-78
2023/07/19 00:48:53;;;;;;;7.20;6.40;;;27.50;98.30;;;;;;5086728;28;20169;-79
2023/07/19 00:51:20;;;;;;;9.70;6.57;;;27.40;98.80;;;;;;5102579;28;20405;-74
2023/07/19 00:53:48;;;;;;;8.20;7.33;;;27.40;98.60;;;;;;5102499;28;20594;-73
2023/07/19 00:56:14;;;;;;;8.77;7.23;;;27.40;98.70;;;;;;5086327;28;20416;-78
2023/07/19 00:58:40;;;;;;;7.60;6.93;;;27.30;98.80;;;;;;5102282;28;20476;-74
2023/07/19 01:01:06;;;;;;;7.47;6.47;;;27.30;99.00;;;;;;5087000;28;20183;-73
2023/07/19 01:03:33;;;;;;;10.00;8.07;;;27.30;99.20;;;;;;5086715;28;20836;-79
2023/07/19 01:05:59;;;;;;;10.17;6.60;;;27.20;99.40;;;;;;5087049;28;20405;-74
2023/07/19 01:08:26;;;;;;;10.60;7.47;;;27.20;99.50;;;;;;5102207;28;20432;-79
2023/07/19 01:10:53;;;;;;;11.03;6.90;;;27.10;99.60;;;;;;5087121;28;20784;-79
2023/07/19 01:13:18;;;;;;;8.70;6.40;;;27.10;99.70;;;;;;5101223;28;20479;-74
2023/07/19 01:15:44;;;;;;;11.60;6.43;;;27.00;99.80;;;;;;5086605;28;20408;-78
2023/07/19 01:18:10;;;;;;;9.50;6.63;;;27.00;99.90;;;;;;5086706;28;20263;-74
2023/07/19 01:20:37;;;;;;;8.00;6.23;;;26.90;99.90;;;;;;5101837;28;20215;-74
2023/07/19 01:23:03;;;;;;;7.10;6.30;;;26.90;99.90;;;;;;5086243;28;20443;-78
2023/07/19 01:25:29;;;;;;;11.00;6.13;;;26.90;99.90;;;;;;5086027;28;20467;-79
2023/07/19 01:27:55;;;;;;;10.23;6.17;;;26.80;99.90;;;;;;5101625;28;20815;-73
2023/07/19 01:30:20;;;;;;;14.03;7.20;;;26.80;99.90;;;;;;5086256;28;20416;-78
2023/07/19 01:32:46;;;;;;;7.40;6.20;;;26.70;99.90;;;;;;5086143;28;20200;-79
2023/07/19 01:35:12;;;;;;;10.80;6.47;;;26.70;99.90;;;;;;5086447;28;20645;-74
2023/07/19 01:37:39;;;;;;;7.33;5.97;;;26.70;99.90;;;;;;5101816;28;20633;-74
2023/07/19 01:40:05;;;;;;;8.13;5.27;;;26.70;99.90;;;;;;5086199;28;20421;-74
2023/07/19 01:42:31;;;;;;;6.10;5.50;;;26.70;99.90;;;;;;5101727;28;20431;-74
2023/07/19 01:44:59;;;;;;;6.80;6.00;;;26.70;99.80;;;;;;5101475;28;20420;-74
2023/07/19 01:47:25;;;;;;;12.43;5.90;;;26.70;99.70;;;;;;5086098;28;20512;-74
2023/07/19 01:49:51;;;;;;;9.80;5.83;;;26.80;99.50;;;;;;5085820;28;20644;-78
2023/07/19 01:52:16;;;;;;;6.13;5.33;;;26.80;99.40;;;;;;5086016;28;20898;-73
2023/07/19 01:54:42;;;;;;;7.13;5.17;;;26.80;99.30;;;;;;5085766;28;20347;-78
2023/07/19 01:57:08;;;;;;;8.50;5.47;;;26.80;99.30;;;;;;5085476;28;20832;-74
2023/07/19 01:59:33;;;;;;;5.53;4.97;;;26.80;99.20;;;;;;5085680;28;20208;-79
2023/07/19 02:01:59;;;;;;;4.70;4.30;;;26.80;99.00;;;;;;5085539;28;20657;-73
2023/07/19 02:04:24;;;;;;;7.30;4.70;;;26.80;99.00;;;;;;5085670;28;20608;-74
2023/07/19 02:06:50;;;;;;;11.23;4.57;;;26.80;98.90;;;;;;5085613;28;20197;-73
2023/07/19 02:09:16;;;;;;;9.53;4.73;;;26.80;98.80;;;;;;5101259;28;20271;-74
2023/07/19 02:11:41;;;;;;;6.90;4.97;;;26.90;98.70;;;;;;5085781;28;20510;-78
2023/07/19 02:14:07;;;;;;;9.27;5.17;;;26.90;98.60;;;;;;5100923;28;20227;-73
2023/07/19 02:16:34;;;;;;;5.13;4.17;;;26.90;98.50;;;;;;5085654;28;20367;-78
2023/07/19 02:19:00;;;;;;;5.03;3.70;;;27.00;98.40;;;;;;5100686;28;20472;-79
2023/07/19 02:21:25;;;;;;;6.43;4.73;;;27.00;98.30;;;;;;5085811;28;20902;-78
2023/07/19 02:23:51;;;;;;;7.47;4.60;;;27.00;98.20;;;;;;5085800;28;20188;-78
2023/07/19 02:26:17;;;;;;;9.13;4.67;;;27.00;98.20;;;;;;5088645;28;20396;-73
2023/07/19 02:28:42;;;;;;;4.60;4.10;;;26.90;98.20;;;;;;5104015;28;20196;-78
2023/07/19 02:31:08;;;;;;;10.17;4.87;;;26.90;98.20;;;;;;5105254;28;20241;-78
2023/07/19 02:33:34;;;;;;;5.43;4.60;;;27.00;98.20;;;;;;5089668;28;20204;-73
2023/07/19 02:35:59;;;;;;;6.33;4.27;;;27.00;98.30;;;;;;5089883;28;20204;-78
2023/07/19 02:38:25;;;;;;;5.53;4.40;;;27.00;98.20;;;;;;5089367;28;20223;-78
2023/07/19 02:41:00;;;;;;;6.47;4.60;;;27.00;98.30;;;;;;5089525;28;20190;-78
2023/07/19 02:43:26;;;;;;;6.57;4.07;;;27.00;98.30;;;;;;5089567;28;20507;-74
2023/07/19 02:45:53;;;;;;;6.30;4.83;;;27.00;98.20;;;;;;5105160;28;20497;-74
2023/07/19 02:48:19;;;;;;;6.07;4.80;;;27.00;98.10;;;;;;5088970;28;20425;-74
2023/07/19 02:50:46;;;;;;;7.60;4.50;;;27.00;98.20;;;;;;5104892;28;20455;-78
2023/07/19 02:53:11;;;;;;;8.43;4.40;;;27.00;98.10;;;;;;5104676;28;20508;-73
2023/07/19 02:55:37;;;;;;;6.10;4.50;;;27.00;98.10;;;;;;5088700;28;20550;-78
2023/07/19 02:58:03;;;;;;;4.70;4.07;;;27.00;98.40;;;;;;5103747;28;20511;-74
2023/07/19 03:00:28;;;;;;;7.37;4.57;;;27.10;98.10;;;;;;5089046;28;20180;-73
2023/07/19 03:02:55;;;;;;;5.27;3.87;;;27.10;98.00;;;;;;5089036;28;20536;-78
2023/07/19 03:05:21;;;;;;;4.80;4.10;;;27.10;97.90;;;;;;5089246;28;20165;-79
2023/07/19 03:07:47;;;;;;;6.10;3.93;;;27.10;98.00;;;;;;5104479;28;20542;-78
2023/07/19 03:10:13;;;;;;;6.30;3.80;;;27.10;97.90;;;;;;5087514;28;20413;-73
2023/07/19 03:12:38;;;;;;;6.83;4.23;;;27.10;97.90;;;;;;5102756;28;20767;-78
2023/07/19 03:15:05;;;;;;;7.60;3.97;;;27.10;97.90;;;;;;5087362;28;20172;-74
2023/07/19 03:17:30;;;;;;;8.70;3.83;;;27.10;97.80;;;;;;5087223;28;20638;-74
2023/07/19 03:19:56;;;;;;;5.03;3.93;;;27.10;97.70;;;;;;5102413;28;20486;-73
2023/07/19 03:22:21;;;;;;;8.50;4.00;;;27.10;97.70;;;;;;5102663;28;20216;-74
2023/07/19 03:24:47;;;;;;;4.03;3.13;;;27.10;97.80;;;;;;5087525;28;20173;-79
2023/07/19 03:27:13;;;;;;;9.60;4.13;;;27.10;97.70;;;;;;5088536;28;20356;-79
2023/07/19 03:29:39;;;;;;;4.00;3.30;;;27.10;97.80;;;;;;5103494;28;20447;-73
2023/07/19 03:32:05;;;;;;;5.23;3.30;;;26.90;97.70;;;;;;5088030;28;20208;-78
2023/07/19 03:34:30;;;;;;;3.67;3.33;;;26.90;97.90;;;;;;5088469;28;20677;-73
2023/07/19 03:36:56;;;;;;;4.63;3.07;;;26.80;97.90;;;;;;5103170;28;20437;-73
2023/07/19 03:39:22;;;;;;;6.80;3.33;;;26.70;97.90;;;;;;5103924;28;20208;-74
2023/07/19 03:41:47;;;;;;;6.40;3.67;;;26.70;98.00;;;;;;5103789;28;20203;-78
2023/07/19 03:44:13;;;;;;;7.80;3.23;;;26.50;98.10;;;;;;5087432;28;20176;-73
2023/07/19 03:46:39;;;;;;;7.13;3.63;;;26.50;98.20;;;;;;5088425;28;20259;-74
2023/07/19 03:49:04;;;;;;;6.83;3.93;;;26.40;98.30;;;;;;5087926;28;20169;-78
2023/07/19 03:51:30;;;;;;;7.50;3.10;;;26.40;98.40;;;;;;5088058;28;20180;-74
2023/07/19 03:53:56;;;;;;;4.50;2.80;;;26.40;98.40;;;;;;5087990;28;20458;-74
2023/07/19 03:56:21;;;;;;;31.40;22.73;;;26.40;98.50;;;;;;5102573;28;20401;-75
2023/07/19 03:58:49;;;;;;;7.83;3.63;;;26.50;98.40;;;;;;5086784;28;20390;-75
2023/07/19 04:01:16;;;;;;;7.70;2.90;;;26.60;98.30;;;;;;5087715;28;20204;-76
2023/07/19 04:03:41;;;;;;;7.13;2.40;;;26.70;98.20;;;;;;5088204;28;20486;-75
2023/07/19 04:06:08;;;;;;;8.57;3.03;;;26.80;98.20;;;;;;5103437;28;20532;-75
2023/07/19 04:08:34;;;;;;;4.43;2.70;;;26.80;98.00;;;;;;5096526;28;20526;-75
2023/07/19 04:11:00;;;;;;;5.97;2.80;;;27.00;97.90;;;;;;5097697;28;20431;-80
2023/07/19 04:13:26;;;;;;;7.63;2.70;;;27.10;97.80;;;;;;5092751;28;20460;-80
2023/07/19 04:15:52;;;;;;;8.87;2.53;;;27.20;97.80;;;;;;5086455;28;20644;-79
2023/07/19 04:18:18;;;;;;;5.03;2.80;;;27.40;97.60;;;;;;5086083;28;20493;-80
2023/07/19 04:20:43;;;;;;;8.27;2.50;;;27.50;97.50;;;;;;5087679;28;20413;-76
2023/07/19 04:23:09;;;;;;;3.00;2.60;;;27.60;97.60;;;;;;5086223;28;20463;-75
2023/07/19 04:25:35;;;;;;;4.97;2.80;;;27.70;97.40;;;;;;5085634;28;20247;-76
2023/07/19 04:28:01;;;;;;;10.27;3.53;;;27.70;97.30;;;;;;5087102;28;20225;-80
2023/07/19 04:30:27;;;;;;;6.60;2.40;;;27.80;97.30;;;;;;5086003;28;20171;-75
2023/07/19 04:32:55;;;;;;;3.80;3.00;;;27.90;97.30;;;;;;5107397;28;20996;-76
2023/07/19 04:35:22;;;;;;;6.23;3.40;;;28.00;97.10;;;;;;5106909;28;20265;-80
2023/07/19 04:37:49;;;;;;;3.80;3.07;;;28.10;97.00;;;;;;5105682;28;20472;-80
2023/07/19 04:40:16;;;;;;;7.90;3.53;;;28.10;97.10;;;;;;5105658;28;20412;-76
2023/07/19 04:42:42;;;;;;;5.10;3.40;;;28.20;96.90;;;;;;5107144;28;20461;-76
2023/07/19 04:45:08;;;;;;;8.33;3.17;;;28.30;97.00;;;;;;5107276;28;20956;-80
2023/07/19 04:47:34;;;;;;;10.83;3.23;;;28.30;96.90;;;;;;5104956;28;20521;-76
2023/07/19 04:49:59;;;;;;;6.90;3.00;;;28.30;96.60;;;;;;5106817;28;21008;-75
2023/07/19 04:52:25;;;;;;;7.10;3.00;;;28.40;96.60;;;;;;5107483;28;20227;-75
2023/07/19 04:54:50;;;;;;;8.77;6.77;;;28.40;96.60;;;;;;5107090;28;20573;-75
2023/07/19 04:57:16;;;;;;;9.73;3.63;;;28.50;96.60;;;;;;5106367;28;20204;-75
2023/07/19 04:59:42;;;;;;;5.00;3.30;;;28.50;96.60;;;;;;5104383;28;20213;-75
2023/07/19 05:02:07;;;;;;;15.00;3.60;;;28.60;96.70;;;;;;5104065;28;20478;-80
2023/07/19 05:04:33;;;;;;;9.13;2.93;;;28.60;96.60;;;;;;5105616;28;20194;-75
2023/07/19 05:06:59;;;;;;;6.10;2.60;;;28.70;96.90;;;;;;5106727;28;20246;-80
2023/07/19 05:09:25;;;;;;;5.53;2.60;;;28.70;96.60;;;;;;5107019;28;20886;-75
2023/07/19 05:11:51;;;;;;;6.20;3.17;;;28.80;96.50;;;;;;5107146;28;20696;-80
2023/07/19 05:14:17;;;;;;;5.03;2.57;;;28.80;96.30;;;;;;5106365;28;20696;-75
2023/07/19 05:16:43;;;;;;;7.83;2.90;;;28.80;96.40;;;;;;5105248;28;20406;-75
2023/07/19 05:19:09;;;;;;;4.90;2.90;;;28.80;96.40;;;;;;5105435;28;20705;-75
2023/07/19 05:21:35;;;;;;;6.80;3.20;;;28.80;96.40;;;;;;5106022;28;20261;-75
2023/07/19 05:24:00;;;;;;;8.40;3.27;;;28.90;96.50;;;;;;5106147;28;20426;-75
2023/07/19 05:26:26;;;;;;;4.90;2.83;;;28.90;96.40;;;;;;5106404;28;20374;-77
2023/07/19 05:28:51;;;;;;;7.17;3.10;;;29.00;96.20;;;;;;5101499;28;20178;-80
2023/07/19 05:31:18;;;;;;;6.73;3.27;;;29.20;96.10;;;;;;5090119;28;20187;-79
2023/07/19 05:33:43;;;;;;;7.07;2.90;;;29.30;96.20;;;;;;5090161;28;20288;-75
2023/07/19 05:36:09;;;;;;;5.90;3.23;;;29.50;96.00;;;;;;5102585;28;21033;-75
2023/07/19 05:38:35;;;;;;;4.60;2.10;;;29.50;96.00;;;;;;5093495;28;20211;-75
2023/07/19 05:41:02;;;;;;;15.37;7.10;;;29.60;95.90;;;;;;5083783;28;20327;-75
2023/07/19 05:43:29;;;;;;;5.90;3.10;;;29.70;95.80;;;;;;5081077;28;20199;-80
2023/07/19 05:46:04;;;;;;;8.67;3.00;;;29.90;95.50;;;;;;5084359;28;20493;-79
2023/07/19 05:48:29;;;;;;;6.63;2.50;;;30.00;95.40;;;;;;5088629;28;20701;-80
2023/07/19 05:50:55;;;;;;;9.27;2.70;;;30.00;95.20;;;;;;5095494;28;21091;-80
2023/07/19 05:53:20;;;;;;;6.20;2.93;;;30.10;95.40;;;;;;5088454;28;20737;-80
2023/07/19 05:55:46;;;;;;;7.53;2.50;;;30.00;95.40;;;;;;5087372;28;20497;-75
2023/07/19 05:58:12;;;;;;;4.43;2.60;;;30.10;95.30;;;;;;5090195;28;20422;-80
2023/07/19 06:00:40;;;;;;;6.30;3.10;;;30.10;95.30;;;;;;5075997;28;20362;-75
2023/07/19 06:03:06;;;;;;;5.90;2.60;;;30.30;95.20;;;;;;5078210;28;20248;-75
2023/07/19 06:05:32;;;;;;;7.20;3.17;;;30.40;95.10;;;;;;5085869;28;20489;-80
2023/07/19 06:07:58;;;;;;;4.80;2.20;;;30.50;94.90;;;;;;5091116;28;20500;-80
2023/07/19 06:10:23;;;;;;;5.40;2.90;;;30.50;95.00;;;;;;5096893;28;20796;-80
2023/07/19 06:12:50;;;;;;;4.63;2.90;;;30.50;94.70;;;;;;5098098;28;20225;-76
2023/07/19 06:15:16;;;;;;;8.70;2.97;;;30.60;94.60;;;;;;5098338;28;20654;-76
2023/07/19 06:17:42;;;;;;;8.50;3.13;;;30.70;94.60;;;;;;5094220;28;20465;-76
2023/07/19 06:20:10;;;;;;;9.23;3.50;;;30.80;94.40;;;;;;5093774;28;20442;-79
2023/07/19 06:22:36;;;;;;;5.57;3.20;;;30.90;95.00;;;;;;5086251;28;20437;-76
2023/07/19 06:25:02;;;;;;;8.57;3.70;;;30.90;94.60;;;;;;5084197;28;21336;-75
2023/07/19 06:27:27;;;;;;;4.90;2.77;;;31.00;94.30;;;;;;5089063;28;20447;-76
2023/07/19 06:29:53;;;;;;;9.07;3.13;;;31.00;94.30;;;;;;5093703;28;20187;-76
2023/07/19 06:32:19;;;;;;;8.60;3.30;;;31.00;94.20;;;;;;5100947;28;20218;-75
2023/07/19 06:34:44;;;;;;;6.23;2.60;;;31.10;94.20;;;;;;5099752;28;20265;-76
2023/07/19 06:37:10;;;;;;;7.43;3.17;;;31.20;94.10;;;;;;5101347;28;20294;-76
2023/07/19 06:39:36;;;;;;;6.27;3.17;;;31.20;94.20;;;;;;5087597;28;20251;-80
2023/07/19 06:42:01;;;;;;;7.57;2.97;;;31.20;94.00;;;;;;5096702;28;20623;-76
2023/07/19 06:44:27;;;;;;;5.67;2.83;;;31.10;94.10;;;;;;5098309;28;20195;-76
2023/07/19 06:46:53;;;;;;;10.20;3.10;;;31.00;94.30;;;;;;5096471;28;20214;-80
2023/07/19 06:49:19;;;;;;;9.53;2.93;;;30.80;94.40;;;;;;5095608;28;20203;-76
2023/07/19 06:51:45;;;;;;;15.53;3.50;;;30.50;94.70;;;;;;5094888;28;20687;-80
2023/07/19 06:54:11;;;;;;;4.63;2.87;;;30.60;95.30;;;;;;5103401;28;20415;-80
2023/07/19 06:56:37;;;;;;;5.73;2.87;;;30.50;94.90;;;;;;5102042;28;20759;-80
2023/07/19 06:59:03;;;;;;;5.17;3.20;;;30.70;94.80;;;;;;5092064;28;20649;-76
2023/07/19 07:01:28;;;;;;;7.93;2.60;;;30.70;94.80;;;;;;5083937;28;20186;-79
2023/07/19 07:03:54;;;;;;;9.17;2.87;;;30.70;94.50;;;;;;5085981;28;20217;-78
2023/07/19 07:06:19;;;;;;;6.43;3.13;;;30.60;94.60;;;;;;5091751;28;20187;-78
2023/07/19 07:08:45;;;;;;;8.93;3.00;;;30.60;94.90;;;;;;5082818;28;20440;-79
2023/07/19 07:11:11;;;;;;;6.50;2.90;;;30.70;94.80;;;;;;5098832;28;20233;-79
2023/07/19 07:13:36;;;;;;;6.87;3.37;;;30.70;94.70;;;;;;5104447;28;20698;-79
2023/07/19 07:16:02;;;;;;;4.53;2.73;;;30.70;94.80;;;;;;5097883;28;20184;-79
2023/07/19 07:18:28;;;;;;;7.73;3.03;;;30.80;94.90;;;;;;5094621;28;20219;-76
2023/07/19 07:20:54;;;;;;;9.87;3.30;;;30.90;94.70;;;;;;5098831;28;20769;-79
2023/07/19 07:23:20;;;;;;;5.13;3.20;;;30.90;94.90;;;;;;5097988;28;20448;-76
2023/07/19 07:25:46;;;;;;;6.20;2.97;;;30.80;94.90;;;;;;5089798;28;20309;-76
2023/07/19 07:28:11;;;;;;;4.23;2.70;;;30.70;95.00;;;;;;5089796;28;20570;-79
2023/07/19 07:30:37;;;;;;;13.57;3.37;;;30.80;95.10;;;;;;5090370;28;20649;-76
2023/07/19 07:33:03;;;;;;;7.60;2.90;;;30.80;95.00;;;;;;5100952;28;20266;-79
2023/07/19 07:35:29;;;;;;;7.50;3.30;;;30.80;94.90;;;;;;5103089;28;20442;-79
2023/07/19 07:37:55;;;;;;;6.47;2.70;;;30.80;94.80;;;;;;5088837;28;20479;-80
2023/07/19 07:40:22;;;;;;;5.90;2.80;;;30.80;94.80;;;;;;5098154;28;20935;-82
2023/07/19 07:42:47;;;;;;;8.27;3.53;;;30.80;95.10;;;;;;5103919;28;20749;-76
2023/07/19 07:45:13;;;;;;;7.20;3.13;;;30.90;95.00;;;;;;5105132;28;20423;-76
2023/07/19 07:47:39;;;;;;;6.00;3.27;;;31.00;94.70;;;;;;5091136;28;20197;-76
2023/07/19 07:50:08;;;;;;;8.40;3.60;;;31.20;94.60;;;;;;5095910;28;20640;-81
2023/07/19 07:52:34;;;;;;;8.53;3.13;;;31.30;94.60;;;;;;5096100;28;20735;-76
2023/07/19 07:55:00;;;;;;;7.30;3.00;;;31.30;94.30;;;;;;5088355;28;20431;-76
2023/07/19 07:57:26;;;;;;;6.90;3.70;;;31.40;94.20;;;;;;5100101;28;20448;-80
2023/07/19 07:59:52;;;;;;;6.18;3.00;;;31.40;94.70;;;;;;5087519;28;20394;-74
2023/07/19 08:02:18;;;;;;;9.77;3.50;;;31.30;95.10;;;;;;5099255;28;20632;-75
2023/07/19 08:04:43;;;;;;;5.30;3.20;;;31.40;94.90;;;;;;5093856;28;20527;-76
2023/07/19 08:07:09;;;;;;;5.40;3.30;;;31.60;94.60;;;;;;5085656;28;20313;-76
2023/07/19 08:09:35;;;;;;;10.13;3.50;;;31.60;94.60;;;;;;5084779;28;20176;-79
2023/07/19 08:12:00;;;;;;;6.33;3.37;;;31.60;94.60;;;;;;5084563;28;20204;-79
2023/07/19 08:14:26;;;;;;;8.40;3.60;;;31.60;94.90;;;;;;5084156;28;20725;-79
2023/07/19 08:16:53;;;;;;;8.43;3.30;;;31.80;94.70;;;;;;5087407;28;20203;-80
2023/07/19 08:19:19;;;;;;;8.83;3.33;;;31.90;94.40;;;;;;5101551;28;20752;-77
2023/07/19 08:21:44;;;;;;;6.77;3.37;;;32.00;95.40;;;;;;5099229;28;20594;-76
2023/07/19 08:24:11;;;;;;;5.60;3.23;;;32.10;94.60;;;;;;5098277;28;20219;-77
2023/07/19 08:26:37;;;;;;;12.00;3.73;;;32.00;94.40;;;;;;5102168;28;20278;-76
2023/07/19 08:29:02;;;;;;;7.33;3.30;;;32.10;94.60;;;;;;5104199;28;20995;-78
2023/07/19 08:31:28;;;;;;;5.90;3.30;;;32.20;94.10;;;;;;5100995;28;20431;-78
2023/07/19 08:33:54;;;;;;;6.33;3.30;;;32.20;94.40;;;;;;5094422;28;20179;-77
2023/07/19 08:36:20;;;;;;;5.70;3.37;;;32.10;94.30;;;;;;5100156;28;20259;-77
2023/07/19 08:38:47;;;;;;;8.60;3.37;;;32.10;94.20;;;;;;5097372;28;20203;-77
2023/07/19 08:41:16;;;;;;;10.67;6.67;;;32.00;94.30;;;;;;5095373;28;20237;-76
2023/07/19 08:43:42;;;;;;;10.07;6.70;;;31.90;94.20;;;;;;5095404;28;20723;-77
2023/07/19 08:46:14;;;;;;;7.87;4.20;;;31.90;94.80;;;;;;5088623;28;20440;-76
2023/07/19 08:48:43;;;;;;;7.00;3.07;;;31.80;95.00;;;;;;5099156;28;20456;-76
2023/07/19 08:51:10;;;;;;;9.20;3.43;;;31.80;95.20;;;;;;5094611;28;20432;-76
2023/07/19 08:53:36;;;;;;;6.13;3.20;;;31.70;95.30;;;;;;5102002;28;20938;-79
2023/07/19 08:56:01;;;;;;;9.40;3.50;;;31.70;95.30;;;;;;5098174;28;20412;-76
2023/07/19 08:58:27;;;;;;;8.27;3.60;;;31.60;95.20;;;;;;5080680;28;20455;-79
2023/07/19 09:00:53;;;;;;;7.33;6.00;;;31.50;95.30;;;;;;5087651;28;20235;-76
2023/07/19 09:03:18;;;;;;;10.43;7.07;;;31.60;95.10;;;;;;5083422;27;20214;-76
2023/07/19 09:05:46;;;;;;;3.90;3.17;;;31.60;95.20;;;;;;5097697;28;20176;-80
2023/07/19 09:08:12;;;;;;;5.70;3.20;;;31.60;95.00;;;;;;5095314;28;20203;-76
2023/07/19 09:10:41;;;;;;;6.10;3.47;;;31.50;95.00;;;;;;5097619;28;20424;-79
2023/07/19 09:13:07;;;;;;;10.20;4.00;;;31.40;95.00;;;;;;5103751;28;20447;-76
2023/07/19 09:15:36;;;;;;;12.20;4.20;;;31.30;95.10;;;;;;5103513;28;20431;-80
2023/07/19 09:18:06;;;;;;;6.83;3.80;;;31.40;95.10;;;;;;5104494;28;20255;-80
2023/07/19 09:20:37;;;;;;;9.97;4.03;;;31.40;95.20;;;;;;5084543;28;20445;-77
2023/07/19 09:23:07;;;;;;;8.20;3.93;;;31.40;95.20;;;;;;5093610;28;20451;-80
2023/07/19 09:25:57;;;;;;;6.33;3.30;;;31.40;95.20;;;;;;5085433;28;20512;-80
2023/07/19 09:28:23;;;;;;;6.40;3.20;;;31.50;95.30;;;;;;5090736;28;20435;-79
2023/07/19 09:31:07;;;;;;;8.10;3.50;;;31.50;95.50;;;;;;5087492;28;20440;-79
2023/07/19 09:33:33;;;;;;;6.83;3.47;;;31.40;95.70;;;;;;5098835;28;20540;-76
2023/07/19 09:35:58;;;;;;;5.57;3.87;;;31.50;95.50;;;;;;5096019;28;20531;-79
2023/07/19 09:38:25;;;;;;;6.90;4.23;;;31.60;95.40;;;;;;5095249;28;20628;-76
2023/07/19 09:40:53;;;;;;;7.83;3.00;;;31.80;94.50;;;;;;5082365;28;20185;-80
2023/07/19 09:43:20;;;;;;;7.20;4.50;;;31.90;94.50;;;;;;5081541;28;20842;-76
2023/07/19 09:45:47;;;;;;;4.30;3.10;;;32.10;94.10;;;;;;5080376;28;20429;-80
2023/07/19 09:48:17;;;;;;;11.07;3.90;;;32.30;94.20;;;;;;5078067;28;20961;-76
2023/07/19 09:50:43;;;;;;;8.07;3.40;;;32.50;94.00;;;;;;5096578;28;20450;-80
2023/07/19 09:53:11;;;;;;;7.10;3.20;;;32.60;93.50;;;;;;5096354;28;20440;-79
2023/07/19 09:55:38;;;;;;;12.77;4.23;;;32.70;93.20;;;;;;5084366;28;20512;-76
2023/07/19 09:58:07;;;;;;;6.00;4.37;;;33.00;92.80;;;;;;5081483;28;20968;-80
2023/07/19 10:00:33;;;;;;;7.60;4.23;;;33.20;92.00;;;;;;5094439;28;20487;-79
2023/07/19 10:02:59;;;;;;;24.83;18.23;;;33.30;92.10;;;;;;5082647;28;20425;-80
2023/07/19 10:05:28;;;;;;;10.57;4.67;;;33.50;92.20;;;;;;5100180;28;20477;-80
2023/07/19 10:08:02;;;;;;;4.23;3.83;;;33.70;92.10;;;;;;5093655;28;20517;-80
2023/07/19 10:10:41;;;;;;;8.00;4.10;;;33.90;91.70;;;;;;5098163;28;20439;-81
2023/07/19 10:13:08;;;;;;;11.10;4.33;;;34.00;91.30;;;;;;5095544;28;20479;-77
2023/07/19 10:15:35;;;;;;;5.27;4.00;;;34.10;90.90;;;;;;5099719;28;20472;-81
2023/07/19 10:18:01;;;;;;;8.23;3.30;;;34.20;90.90;;;;;;5099677;28;20534;-77
2023/07/19 10:20:32;;;;;;;4.73;3.47;;;34.30;90.30;;;;;;5100355;28;20439;-81
2023/07/19 10:23:06;;;;;;;9.23;3.73;;;34.30;90.00;;;;;;5083595;28;20611;-77
2023/07/19 10:25:46;;;;;;;7.30;3.97;;;34.40;90.10;;;;;;5078591;28;20518;-81
2023/07/19 10:28:13;;;;;;;7.43;4.47;;;34.50;90.20;;;;;;5087218;28;20423;-80
2023/07/19 10:30:46;;;;;;;9.37;4.07;;;34.60;90.60;;;;;;5088076;28;20431;-78
2023/07/19 10:33:16;;;;;;;9.07;3.97;;;34.70;90.40;;;;;;5091956;28;20907;-81
2023/07/19 10:35:43;;;;;;;10.50;3.87;;;34.70;90.10;;;;;;5088489;28;20444;-77
2023/07/19 10:38:23;;;;;;;8.90;3.70;;;34.80;89.20;;;;;;5093777;28;20456;-77
2023/07/19 10:40:59;;;;;;;5.70;3.80;;;34.80;88.00;;;;;;5094011;28;20479;-77
2023/07/19 10:43:27;;;;;;;6.87;4.73;;;34.70;87.80;;;;;;5094791;28;20711;-78
2023/07/19 10:45:54;;;;;;;6.10;3.87;;;34.70;87.50;;;;;;5088159;28;20451;-77
2023/07/19 10:48:27;;;;;;;7.50;4.20;;;34.70;87.30;;;;;;5098477;28;20478;-77
2023/07/19 10:50:57;;;;;;;6.40;4.00;;;34.80;87.60;;;;;;5094147;28;20492;-77
2023/07/19 10:53:24;;;;;;;5.43;3.43;;;34.90;87.70;;;;;;5099236;28;20978;-77
2023/07/19 10:55:56;;;;;;;6.77;4.20;;;35.00;85.30;;;;;;5084298;28;20409;-79
2023/07/19 10:58:24;;;;;;;5.90;4.07;;;34.90;84.20;;;;;;5092183;28;20559;-82
2023/07/19 11:00:51;;;;;;;5.10;3.87;;;34.90;83.80;;;;;;5088302;28;20427;-81
2023/07/19 11:03:17;;;;;;;5.40;3.40;;;35.10;84.30;;;;;;5095447;28;20795;-81
2023/07/19 11:05:47;;;;;;;7.13;4.10;;;35.20;84.60;;;;;;5100650;28;20504;-77
2023/07/19 11:08:23;;;;;;;7.80;3.67;;;35.30;84.40;;;;;;5101202;28;20714;-80
2023/07/19 11:10:49;;;;;;;9.30;3.63;;;35.40;84.60;;;;;;5090793;27;20460;-77
2023/07/19 11:13:20;;;;;;;5.47;3.67;;;35.40;84.60;;;;;;5087065;28;20487;-81
2023/07/19 11:15:50;;;;;;;5.40;3.30;;;35.40;84.90;;;;;;5102794;27;20954;-81
2023/07/19 11:18:30;;;;;;;10.43;3.30;;;35.40;84.50;;;;;;5125530;27;20822;-81
2023/07/19 11:20:59;;;;;;;8.23;4.17;;;35.40;82.60;;;;;;5120166;27;20578;-81
2023/07/19 11:23:26;;;;;;;4.43;3.80;;;35.40;82.50;;;;;;5095678;28;20478;-81
2023/07/19 11:26:01;;;;;;;8.60;3.50;;;35.50;82.50;;;;;;5099564;28;20429;-77
2023/07/19 11:28:42;;;;;;;10.00;4.53;;;35.70;81.80;;;;;;5097046;28;20710;-77
2023/07/19 11:31:08;;;;;;;4.60;3.40;;;35.80;81.00;;;;;;5093856;28;20393;-77
2023/07/19 11:33:36;;;;;;;4.47;3.50;;;35.90;80.00;;;;;;5095380;28;20451;-81
2023/07/19 11:36:12;;;;;;;6.33;3.77;;;36.10;79.30;;;;;;5095196;28;21064;-81
2023/07/19 11:38:38;;;;;;;4.97;3.67;;;36.30;80.10;;;;;;5104427;28;20555;-81
2023/07/19 11:41:04;;;;;;;5.70;3.70;;;36.40;80.30;;;;;;5100941;27;20424;-80
2023/07/19 11:43:30;;;;;;;6.83;3.97;;;36.40;79.80;;;;;;5105041;28;20450;-81
2023/07/19 11:45:56;;;;;;;5.03;3.50;;;36.40;81.70;;;;;;5105175;28;20187;-80
2023/07/19 11:48:22;;;;;;;9.90;3.50;;;36.40;80.30;;;;;;5106069;28;20212;-80
2023/07/19 11:50:48;;;;;;;11.77;4.50;;;36.60;79.60;;;;;;5108510;28;20459;-77
2023/07/19 11:53:14;;;;;;;6.80;3.83;;;36.60;78.90;;;;;;5107285;28;20192;-81
2023/07/19 11:55:39;;;;;;;4.40;3.70;;;36.60;80.00;;;;;;5105720;27;20771;-80
2023/07/19 11:58:05;;;;;;;5.40;3.90;;;36.50;80.30;;;;;;5104439;28;20450;-81
2023/07/19 12:00:32;;;;;;;5.30;3.77;;;36.40;80.20;;;;;;5097233;28;20172;-77
2023/07/19 12:03:00;;;;;;;5.23;3.53;;;36.30;80.20;;;;;;5104320;28;20559;-81
2023/07/19 12:05:26;;;;;;;5.70;2.97;;;36.30;81.00;;;;;;5090953;28;20436;-81
2023/07/19 12:07:52;;;;;;;4.47;3.50;;;36.30;81.30;;;;;;5085260;28;20438;-77
2023/07/19 12:10:19;;;;;;;4.97;3.93;;;36.30;81.00;;;;;;5100865;28;20708;-78
2023/07/19 12:12:46;;;;;;;7.50;4.17;;;36.40;81.20;;;;;;5105644;28;20819;-81
2023/07/19 12:15:13;;;;;;;5.90;3.50;;;36.40;81.20;;;;;;5106345;27;20412;-81
2023/07/19 12:17:39;;;;;;;6.43;3.50;;;36.40;81.00;;;;;;5105228;28;21009;-80
2023/07/19 12:20:06;;;;;;;5.37;3.57;;;36.20;82.00;;;;;;5105259;28;20482;-77
2023/07/19 12:22:36;;;;;;;6.80;4.03;;;36.40;81.60;;;;;;5100585;27;20444;-80
2023/07/19 12:25:03;;;;;;;5.97;3.87;;;36.40;80.50;;;;;;5106653;28;20416;-77
2023/07/19 12:27:30;;;;;;;5.23;3.33;;;36.40;80.20;;;;;;5106427;28;20981;-77
2023/07/19 12:29:56;;;;;;;6.20;3.73;;;36.40;81.10;;;;;;5106524;28;20955;-80
2023/07/19 12:32:22;;;;;;;5.63;3.60;;;36.40;79.90;;;;;;5103505;28;20510;-77
2023/07/19 12:34:48;;;;;;;8.27;4.13;;;36.40;80.10;;;;;;5106211;28;20459;-77
2023/07/19 12:37:14;;;;;;;8.90;3.50;;;36.50;80.80;;;;;;5103607;28;20326;-81
2023/07/19 12:39:40;;;;;;;6.97;4.13;;;36.60;80.80;;;;;;5103148;28;20966;-77
2023/07/19 12:42:12;;;;;;;7.27;3.80;;;36.70;79.10;;;;;;5097902;27;20476;-81